Time;durP1;ratioP1;P1;durP2;ratioP2;P2;SDS_P1;SDS_P2;PMS_P1;PMS_P2;Temp;Humidity;BMP_temperature;BMP_pressure;BME280_temperature;BME280_humidity;BME280_pressure;Samples;Min_cycle;Max_cycle;Signal;HPM_P1;HPM_P2
2022/04/23 00:00:29;;;;;;;23.20;17.30;;;;;;;6.91;63.06;99487.65;106259;1272;107859;-74
2022/04/23 00:03:11;;;;;;;27.00;17.60;;;;;;;6.92;63.26;99485.55;106117;1273;139128;-74
2022/04/23 00:05:44;;;;;;;21.40;16.60;;;;;;;6.94;63.34;99485.51;106284;1271;97831;-74
2022/04/23 00:08:16;;;;;;;22.80;17.00;;;;;;;6.92;63.26;99481.75;106173;1273;137924;-71
2022/04/23 00:10:48;;;;;;;22.90;17.30;;;;;;;6.90;63.29;99478.87;106214;1273;109786;-74
2022/04/23 00:13:20;;;;;;;21.00;17.40;;;;;;;6.89;63.36;99475.29;106246;1273;107722;-75
2022/04/23 00:15:53;;;;;;;23.80;17.00;;;;;;;6.88;63.46;99471.00;106087;1271;138632;-75
2022/04/23 00:18:25;;;;;;;20.90;15.80;;;;;;;6.88;63.48;99469.80;106233;1272;97947;-75
2022/04/23 00:20:57;;;;;;;20.50;16.00;;;;;;;6.88;63.51;99461.51;106132;1271;138569;-74
2022/04/23 00:23:31;;;;;;;22.70;17.20;;;;;;;6.90;63.63;99460.56;106294;1271;109635;-75
2022/04/23 00:26:05;;;;;;;21.10;16.40;;;;;;;6.93;63.80;99456.48;106233;1272;109408;-74
2022/04/23 00:28:37;;;;;;;20.50;16.10;;;;;;;6.96;63.55;99455.00;106119;1271;139992;-73
2022/04/23 00:31:09;;;;;;;20.60;15.80;;;;;;;6.97;63.54;99450.48;106256;1271;98052;-73
2022/04/23 00:33:41;;;;;;;20.70;15.80;;;;;;;7.00;63.64;99448.52;106120;1271;138551;-73
2022/04/23 00:36:14;;;;;;;21.40;16.00;;;;;;;7.03;63.54;99445.15;106608;1271;107806;-74
2022/04/23 00:38:49;;;;;;;22.30;16.60;;;;;;;7.05;63.49;99441.79;106114;1271;140405;-74
2022/04/23 00:44:12;;;;;;;20.00;15.80;;;;;;;7.09;63.48;99443.73;107829;1271;96150;-75
2022/04/23 00:46:46;;;;;;;23.40;17.30;;;;;;;7.08;63.28;99439.98;106858;1273;137746;-73
2022/04/23 00:49:17;;;;;;;20.60;16.60;;;;;;;7.06;63.38;99438.31;106267;1271;108986;-76
2022/04/23 00:51:51;;;;;;;20.80;16.20;;;;;;;7.05;63.24;99432.30;107097;1271;138486;-76
2022/04/23 00:54:23;;;;;;;21.50;16.30;;;;;;;7.01;63.53;99427.74;106305;1273;97848;-76
2022/04/23 00:56:56;;;;;;;19.30;15.80;;;;;;;7.00;63.44;99428.98;106166;1271;140056;-76
2022/04/23 00:59:29;;;;;;;22.00;15.90;;;;;;;6.99;63.53;99420.34;106229;1271;112548;-76
2022/04/23 01:02:03;;;;;;;18.40;15.10;;;;;;;6.97;63.81;99421.95;106278;1273;109150;-76
2022/04/23 01:04:35;;;;;;;19.60;15.30;;;;;;;6.95;63.72;99415.13;106122;1271;138533;-75
2022/04/23 01:07:11;;;;;;;19.30;15.70;;;;;;;6.91;63.98;99416.81;106240;1273;97929;-74
2022/04/23 01:09:44;;;;;;;18.60;14.90;;;;;;;6.90;63.92;99419.79;106100;1271;138559;-74
2022/04/23 01:12:17;;;;;;;18.80;15.10;;;;;;;6.90;64.19;99419.42;107821;1273;111427;-75
2022/04/23 01:15:03;;;;;;;23.00;16.90;;;;;;;6.89;64.14;99415.67;107654;1271;139526;-75
2022/04/23 01:17:36;;;;;;;20.10;15.50;;;;;;;6.86;64.25;99416.10;106223;1273;105918;-75
2022/04/23 01:20:10;;;;;;;19.50;15.40;;;;;;;6.86;64.36;99415.77;106191;1273;97805;-74
2022/04/23 01:22:44;;;;;;;18.60;15.30;;;;;;;6.87;64.55;99412.27;106840;1271;138354;-73
2022/04/23 01:25:17;;;;;;;20.60;15.60;;;;;;;6.90;64.48;99407.68;106190;1273;112529;-75
2022/04/23 01:27:50;;;;;;;20.00;16.20;;;;;;;6.93;64.57;99408.64;106184;1271;138588;-73
2022/04/23 01:30:22;;;;;;;22.40;16.60;;;;;;;6.92;64.44;99402.42;106180;1272;109119;-74
2022/04/23 01:32:54;;;;;;;21.00;17.00;;;;;;;6.89;64.49;99398.92;106195;1271;138215;-75
2022/04/23 01:35:27;;;;;;;21.20;17.40;;;;;;;6.84;64.60;99391.81;106236;1272;97818;-76
2022/04/23 01:37:59;;;;;;;21.20;17.10;;;;;;;6.78;64.38;99389.38;106268;1273;109957;-76
2022/04/23 01:40:31;;;;;;;25.70;18.60;;;;;;;6.73;64.44;99386.59;106128;1272;137694;-75
2022/04/23 01:43:03;;;;;;;22.70;17.80;;;;;;;6.70;64.65;99387.59;106217;1272;108448;-76
2022/04/23 01:45:36;;;;;;;25.30;18.20;;;;;;;6.64;64.87;99383.23;106123;1273;139493;-74
2022/04/23 01:48:09;;;;;;;22.20;17.10;;;;;;;6.60;65.13;99375.25;106237;1272;97837;-74
2022/04/23 01:50:41;;;;;;;23.20;17.60;;;;;;;6.55;65.14;99375.05;107698;1271;140450;-75
2022/04/23 01:53:13;;;;;;;24.60;18.60;;;;;;;6.52;65.29;99371.69;106621;1271;109063;-75
2022/04/23 01:55:45;;;;;;;24.30;17.80;;;;;;;6.52;65.39;99369.27;106190;1271;109003;-77
2022/04/23 01:58:17;;;;;;;22.00;17.50;;;;;;;6.52;65.43;99369.80;106187;1272;139323;-77
2022/04/23 02:00:49;;;;;;;22.30;17.70;;;;;;;6.50;65.49;99370.19;106183;1272;97838;-75
2022/04/23 02:03:22;;;;;;;26.70;17.90;;;;;;;6.50;65.61;99363.30;106101;1271;138361;-74
2022/04/23 02:05:54;;;;;;;24.30;18.00;;;;;;;6.48;65.55;99363.70;107758;1271;107614;-74
2022/04/23 02:08:26;;;;;;;22.70;17.10;;;;;;;6.43;65.68;99364.34;106437;1273;138633;-74
2022/04/23 02:10:59;;;;;;;22.90;17.40;;;;;;;6.44;65.76;99364.66;106320;1271;97903;-76
2022/04/23 02:13:31;;;;;;;22.00;16.50;;;;;;;6.46;65.73;99365.13;106288;1273;97811;-74
2022/04/23 02:16:04;;;;;;;21.60;16.90;;;;;;;6.52;65.98;99365.14;106162;1271;138115;-75
2022/04/23 02:18:37;;;;;;;22.10;17.20;;;;;;;6.55;65.73;99362.27;107777;1272;107652;-76
2022/04/23 02:21:09;;;;;;;25.10;18.80;;;;;;;6.56;65.86;99358.61;106415;1272;137858;-75
2022/04/23 02:23:43;;;;;;;23.50;17.30;;;;;;;6.59;65.61;99354.55;106097;1273;209500;-75
2022/04/23 02:26:15;;;;;;;25.80;18.30;;;;;;;6.59;65.65;99349.68;106212;1273;97848;-75
2022/04/23 02:28:47;;;;;;;24.20;18.20;;;;;;;6.60;65.89;99352.95;106178;1273;137671;-74
2022/04/23 02:31:19;;;;;;;25.60;19.30;;;;;;;6.63;65.81;99351.83;107799;1271;108413;-75
2022/04/23 02:33:51;;;;;;;23.70;19.10;;;;;;;6.66;65.93;99352.96;107699;1271;138788;-75
2022/04/23 02:36:23;;;;;;;23.00;17.70;;;;;;;6.69;65.96;99352.20;107835;1271;96019;-75
2022/04/23 02:38:55;;;;;;;21.80;17.00;;;;;;;6.68;65.70;99353.77;106358;1271;138832;-75
2022/04/23 02:41:27;;;;;;;22.90;17.30;;;;;;;6.68;65.80;99354.11;106189;1271;112323;-75
2022/04/23 02:43:59;;;;;;;21.30;16.50;;;;;;;6.72;65.96;99355.73;106228;1271;108305;-76
2022/04/23 02:46:31;;;;;;;22.00;17.70;;;;;;;6.73;65.65;99356.55;106093;1273;139059;-75
2022/04/23 02:49:03;;;;;;;22.30;17.60;;;;;;;6.76;65.63;99354.02;107804;1273;96234;-76
2022/04/23 02:51:35;;;;;;;22.10;17.50;;;;;;;6.78;65.91;99356.73;107659;1271;138189;-76
2022/04/23 02:54:07;;;;;;;22.50;18.00;;;;;;;6.76;65.39;99359.89;107839;1271;111831;-76
2022/04/23 02:56:40;;;;;;;22.80;18.20;;;;;;;6.69;65.44;99363.61;106527;1271;137968;-75
2022/04/23 02:59:12;;;;;;;25.80;18.90;;;;;;;6.60;65.61;99361.25;106242;1273;108875;-75
2022/04/23 03:01:44;;;;;;;24.10;19.50;;;;;;;6.50;65.52;99361.22;106200;1273;97932;-75
2022/04/23 03:04:17;;;;;;;25.40;19.10;;;;;;;6.44;65.68;99357.75;106283;1271;137594;-75
2022/04/23 03:06:49;;;;;;;23.30;18.90;;;;;;;6.40;65.95;99360.63;107807;1272;112334;-75
2022/04/23 03:09:21;;;;;;;22.70;17.90;;;;;;;6.42;66.31;99355.58;107698;1272;139585;-75
2022/04/23 03:11:53;;;;;;;22.40;16.70;;;;;;;6.44;66.52;99356.90;107773;1271;108530;-75
2022/04/23 03:14:25;;;;;;;22.60;17.30;;;;;;;6.46;66.47;99356.14;106655;1273;138725;-74
2022/04/23 03:16:57;;;;;;;22.60;17.90;;;;;;;6.51;66.33;99358.79;106220;1273;97720;-74
2022/04/23 03:19:29;;;;;;;23.00;17.40;;;;;;;6.51;66.04;99356.36;106266;1273;112496;-74
2022/04/23 03:22:01;;;;;;;24.10;18.30;;;;;;;6.51;66.29;99361.70;107702;1273;138889;-75
2022/04/23 03:24:33;;;;;;;24.50;18.30;;;;;;;6.52;66.27;99362.02;107359;1271;108853;-75
2022/04/23 03:27:06;;;;;;;23.10;19.00;;;;;;;6.52;66.15;99358.73;106129;1273;138307;-74
2022/04/23 03:29:39;;;;;;;26.80;18.60;;;;;;;6.53;66.24;99357.14;107713;1271;95906;-74
2022/04/23 03:32:12;;;;;;;23.70;18.50;;;;;;;6.54;66.44;99356.27;106243;1273;112610;-74
2022/04/23 03:34:44;;;;;;;24.90;19.40;;;;;;;6.53;66.48;99351.13;106116;1273;137515;-74
2022/04/23 03:37:17;;;;;;;26.80;19.90;;;;;;;6.55;66.30;99352.41;106233;1271;109203;-74
2022/04/23 03:39:49;;;;;;;22.70;18.10;;;;;;;6.57;66.47;99354.43;106114;1273;138033;-75
2022/04/23 03:42:21;;;;;;;23.10;17.50;;;;;;;6.60;66.40;99359.52;106204;1273;97836;-73
2022/04/23 03:44:53;;;;;;;24.20;16.80;;;;;;;6.63;66.43;99363.73;106168;1273;138623;-75
2022/04/23 03:47:25;;;;;;;22.80;17.30;;;;;;;6.65;66.42;99365.44;106232;1272;108881;-76
2022/04/23 03:49:57;;;;;;;21.40;17.90;;;;;;;6.68;66.28;99370.35;106172;1271;108831;-74
2022/04/23 03:52:29;;;;;;;22.00;18.00;;;;;;;6.71;66.28;99369.77;106085;1273;139810;-74
2022/04/23 03:55:04;;;;;;;22.90;18.30;;;;;;;6.74;66.32;99364.99;106299;1271;97947;-74
2022/04/23 03:57:45;;;;;;;22.70;18.80;;;;;;;6.78;66.42;99366.92;106127;1272;137681;-74
2022/04/23 04:00:21;;;;;;;23.70;18.80;;;;;;;6.76;66.23;99367.86;107279;1273;108953;-73
2022/04/23 04:02:55;;;;;;;22.60;18.70;;;;;;;6.75;66.56;99367.20;106223;1273;138210;-73
2022/04/23 04:05:28;;;;;;;25.80;19.60;;;;;;;6.72;66.12;99367.12;106284;1271;97825;-75
2022/04/23 04:08:00;;;;;;;23.50;18.90;;;;;;;6.69;66.11;99364.30;106177;1272;97713;-73
2022/04/23 04:10:32;;;;;;;24.80;18.80;;;;;;;6.69;66.32;99366.71;106132;1273;138442;-73
2022/04/23 04:13:04;;;;;;;22.40;17.70;;;;;;;6.69;66.29;99364.63;106241;1273;107711;-73
2022/04/23 04:15:36;;;;;;;20.70;16.70;;;;;;;6.70;66.28;99362.54;106144;1271;138639;-73
2022/04/23 04:18:09;;;;;;;22.40;17.40;;;;;;;6.73;66.37;99362.77;106255;1271;97848;-75
2022/04/23 04:20:42;;;;;;;24.60;18.10;;;;;;;6.78;66.44;99358.11;106308;1271;138498;-72
2022/04/23 04:23:14;;;;;;;21.60;17.80;;;;;;;6.90;66.60;99357.57;106279;1272;110357;-74
2022/04/23 04:25:47;;;;;;;23.30;18.70;;;;;;;7.07;66.42;99355.98;106274;1271;108521;-73
2022/04/23 04:28:19;;;;;;;23.70;19.00;;;;;;;7.21;66.10;99356.92;106129;1271;138184;-74
2022/04/23 04:33:41;;;;;;;23.60;18.90;;;;;;;7.24;65.89;99357.84;106174;1271;137764;-74
2022/04/23 04:36:13;;;;;;;25.10;19.20;;;;;;;7.25;65.77;99358.50;106337;1271;112666;-73
2022/04/23 04:38:46;;;;;;;23.10;18.70;;;;;;;7.25;65.65;99359.02;106114;1273;137866;-73
2022/04/23 04:41:19;;;;;;;24.00;19.30;;;;;;;7.26;65.48;99357.79;106177;1273;108999;-72
2022/04/23 04:43:51;;;;;;;28.80;19.60;;;;;;;7.25;65.38;99353.16;106272;1273;97861;-73
2022/04/23 04:46:23;;;;;;;24.60;19.10;;;;;;;7.23;65.43;99356.34;106162;1272;137651;-73
2022/04/23 04:48:56;;;;;;;22.70;18.30;;;;;;;7.19;65.57;99358.02;106280;1271;112817;-73
2022/04/23 04:51:28;;;;;;;25.40;17.40;;;;;;;7.20;65.58;99361.64;106126;1273;139565;-73
2022/04/23 04:54:00;;;;;;;22.00;16.80;;;;;;;7.22;65.55;99361.90;106194;1273;109023;-74
2022/04/23 04:56:32;;;;;;;22.00;17.40;;;;;;;7.29;65.66;99363.91;106120;1271;138371;-75
2022/04/23 04:59:05;;;;;;;22.90;17.90;;;;;;;7.35;65.40;99357.33;106243;1271;97872;-75
2022/04/23 05:01:37;;;;;;;25.40;18.10;;;;;;;7.38;65.66;99360.53;106223;1273;112470;-74
2022/04/23 05:04:09;;;;;;;24.40;18.70;;;;;;;7.41;65.49;99363.17;106213;1271;138988;-75
2022/04/23 05:06:41;;;;;;;27.00;21.50;;;;;;;7.46;65.57;99361.45;106229;1271;108802;-74
2022/04/23 05:09:14;;;;;;;24.90;18.80;;;;;;;7.52;65.37;99364.72;106061;1274;138319;-74
2022/04/23 05:11:46;;;;;;;23.60;18.30;;;;;;;7.57;65.49;99363.67;106270;1271;98326;-75
2022/04/23 05:14:18;;;;;;;21.80;18.20;;;;;;;7.67;65.32;99363.66;106288;1271;112418;-75
2022/04/23 05:16:50;;;;;;;20.90;17.80;;;;;;;7.78;65.22;99367.28;106179;1272;138037;-75
2022/04/23 05:19:22;;;;;;;21.40;17.90;;;;;;;7.87;65.16;99369.02;106255;1273;108423;-75
2022/04/23 05:21:54;;;;;;;23.40;18.30;;;;;;;7.94;64.88;99366.58;106160;1273;137878;-75
2022/04/23 05:24:26;;;;;;;22.20;17.20;;;;;;;7.97;64.77;99367.50;106364;1273;97832;-76
2022/04/23 05:26:58;;;;;;;23.40;17.80;;;;;;;8.06;64.77;99365.77;106023;1271;137768;-76
2022/04/23 05:29:30;;;;;;;21.50;16.90;;;;;;;8.14;64.44;99369.10;106219;1271;107776;-73
2022/04/23 05:32:02;;;;;;;23.80;18.30;;;;;;;8.19;64.48;99368.91;106291;1271;108979;-74
2022/04/23 05:34:35;;;;;;;22.40;17.80;;;;;;;8.25;64.44;99372.68;106085;1273;139182;-75
2022/04/23 05:37:08;;;;;;;25.10;18.60;;;;;;;8.30;64.25;99374.27;106190;1273;97854;-76
2022/04/23 05:39:40;;;;;;;20.70;17.30;;;;;;;8.32;64.11;99375.39;106119;1273;137689;-76
2022/04/23 05:42:14;;;;;;;27.20;21.60;;;;;;;8.29;64.15;99375.67;106185;1273;108937;-77
2022/04/23 05:44:46;;;;;;;25.00;16.80;;;;;;;8.30;64.27;99375.80;106093;1271;139532;-74
2022/04/23 05:47:18;;;;;;;19.30;15.60;;;;;;;8.32;64.20;99372.25;106227;1271;97819;-76
2022/04/23 05:49:50;;;;;;;20.80;15.30;;;;;;;8.33;64.33;99372.58;106256;1271;97821;-75
2022/04/23 05:52:23;;;;;;;20.30;16.80;;;;;;;8.40;64.29;99370.59;106163;1274;138203;-75
2022/04/23 05:54:55;;;;;;;17.90;14.90;;;;;;;8.53;64.16;99367.55;106222;1271;108431;-75
2022/04/23 05:57:27;;;;;;;20.60;16.00;;;;;;;8.68;64.09;99368.68;106111;1271;137893;-75
2022/04/23 05:59:59;;;;;;;21.50;14.50;;;;;;;8.88;63.96;99369.10;106229;1273;97843;-75
2022/04/23 06:02:32;;;;;;;19.00;12.60;;;;;;;9.11;63.57;99366.29;106194;1271;138548;-74
2022/04/23 06:05:04;;;;;;;21.30;14.60;;;;;;;9.30;63.14;99368.11;107806;1271;111496;-76
2022/04/23 06:07:37;;;;;;;20.40;14.30;;;;;;;9.51;62.79;99365.52;107796;1271;109687;-77
2022/04/23 06:10:10;;;;;;;20.00;14.00;;;;;;;9.64;62.57;99367.04;106805;1273;138240;-76
2022/04/23 06:12:42;;;;;;;21.60;13.60;;;;;;;9.79;62.51;99368.66;106264;1273;97823;-75
2022/04/23 06:15:15;;;;;;;21.80;14.00;;;;;;;9.98;62.28;99361.41;106164;1271;138030;-75
2022/04/23 06:17:47;;;;;;;20.70;12.80;;;;;;;10.15;61.64;99360.50;107554;1271;113080;-74
2022/04/23 06:20:19;;;;;;;21.60;12.60;;;;;;;10.24;61.26;99360.66;106203;1271;108928;-75
2022/04/23 06:22:52;;;;;;;22.10;11.80;;;;;;;10.24;61.03;99363.95;106064;1273;138431;-75
2022/04/23 06:25:24;;;;;;;18.40;12.50;;;;;;;10.24;60.99;99357.70;106244;1273;97822;-75
2022/04/23 06:27:56;;;;;;;24.60;14.70;;;;;;;10.27;60.98;99355.63;106169;1271;137880;-76
2022/04/23 06:30:28;;;;;;;20.10;13.60;;;;;;;10.54;60.82;99353.55;106305;1273;112492;-77
2022/04/23 06:33:00;;;;;;;21.60;11.80;;;;;;;11.25;60.41;99347.71;106208;1271;138298;-75
2022/04/23 06:35:34;;;;;;;16.30;10.10;;;;;;;12.88;59.56;99344.15;106275;1271;108938;-75
2022/04/23 06:38:07;;;;;;;14.40;8.40;;;;;;;13.81;56.62;99336.72;106229;1273;98575;-77
2022/04/23 06:40:39;;;;;;;14.50;9.20;;;;;;;13.72;55.48;99338.84;106322;1271;138275;-76
2022/04/23 06:43:11;;;;;;;14.50;8.30;;;;;;;13.53;55.45;99344.33;106956;1271;112526;-76
2022/04/23 06:45:48;;;;;;;11.00;8.20;;;;;;;13.35;55.29;99339.46;107638;1271;137816;-77
2022/04/23 06:48:20;;;;;;;11.80;7.80;;;;;;;13.09;54.94;99341.95;107726;1273;107906;-76
2022/04/23 06:50:53;;;;;;;10.60;7.70;;;;;;;12.79;54.97;99345.23;107706;1271;138095;-77
2022/04/23 06:53:25;;;;;;;13.10;8.20;;;;;;;12.62;55.18;99353.66;107844;1271;95973;-76
2022/04/23 06:56:03;;;;;;;10.80;7.70;;;;;;;12.48;55.11;99357.19;107799;1272;112417;-76
2022/04/23 06:58:35;;;;;;;16.10;7.80;;;;;;;12.33;55.18;99353.64;107734;1271;138021;-76
2022/04/23 07:01:07;;;;;;;11.00;8.30;;;;;;;12.33;55.52;99352.29;107796;1271;108741;-75
2022/04/23 07:03:39;;;;;;;11.10;8.30;;;;;;;12.35;55.38;99350.92;107728;1271;138080;-76
2022/04/23 07:06:12;;;;;;;11.70;8.00;;;;;;;12.57;55.34;99346.81;107382;1272;98002;-76
2022/04/23 07:08:44;;;;;;;10.70;7.20;;;;;;;12.71;55.09;99346.36;106104;1271;137821;-75
2022/04/23 07:11:16;;;;;;;11.60;7.70;;;;;;;12.79;54.88;99340.01;106253;1271;108413;-77
2022/04/23 07:13:48;;;;;;;12.90;8.00;;;;;;;12.73;54.59;99343.80;106216;1273;108881;-77
2022/04/23 07:16:21;;;;;;;13.80;7.50;;;;;;;12.61;54.69;99348.45;106073;1271;137969;-75
2022/04/23 07:18:53;;;;;;;16.20;8.10;;;;;;;12.45;54.55;99344.63;106268;1271;97899;-75
2022/04/23 07:21:25;;;;;;;16.90;7.00;;;;;;;12.27;54.56;99346.16;106183;1271;137800;-74
2022/04/23 07:24:08;;;;;;;11.60;7.70;;;;;;;12.12;54.84;99348.34;106290;1271;109158;-77
2022/04/23 07:26:41;;;;;;;16.30;10.30;;;;;;;11.91;55.07;99344.59;106127;1271;138646;-75
2022/04/23 07:29:14;;;;;;;10.00;7.40;;;;;;;11.71;55.15;99344.00;106227;1273;97855;-74
2022/04/23 07:31:46;;;;;;;10.10;7.80;;;;;;;11.52;55.31;99336.79;106210;1274;97833;-76
2022/04/23 07:40:00;;;;;;;10.00;7.30;;;;;;;10.97;56.08;99337.61;106069;1274;137905;-75
2022/04/23 07:42:32;;;;;;;8.50;7.00;;;;;;;10.82;56.39;99336.05;106251;1271;97832;-76
2022/04/23 07:45:06;;;;;;;9.50;7.10;;;;;;;10.72;56.73;99327.67;106377;1271;137647;-76
2022/04/23 07:47:38;;;;;;;7.00;5.90;;;;;;;10.64;56.95;99330.80;106334;1274;111407;-74
2022/04/23 07:50:11;;;;;;;9.60;5.70;;;;;;;10.60;57.15;99325.45;106232;1273;109102;-78
2022/04/23 07:52:43;;;;;;;6.20;5.60;;;;;;;10.51;57.19;99327.63;106703;1273;137755;-75
2022/04/23 07:55:15;;;;;;;6.60;5.90;;;;;;;10.40;57.44;99327.77;106135;1273;97922;-76
2022/04/23 07:57:46;;;;;;;8.00;6.40;;;;;;;10.32;57.58;99328.84;106116;1271;138068;-75
2022/04/23 08:00:20;;;;;;;10.80;7.70;;;;;;;10.25;57.64;99329.15;106279;1274;112502;-76
2022/04/23 08:02:52;;;;;;;8.80;7.00;;;;;;;10.16;57.81;99330.90;106649;1274;138575;-75
2022/04/23 08:05:24;;;;;;;9.60;7.60;;;;;;;10.08;58.20;99329.04;106234;1271;108315;-75
2022/04/23 08:07:56;;;;;;;9.30;7.70;;;;;;;10.02;58.66;99330.48;106244;1271;97921;-75
2022/04/23 08:10:28;;;;;;;10.00;7.80;;;;;;;9.91;58.84;99331.84;106102;1271;137517;-75
2022/04/23 08:13:01;;;;;;;8.70;7.80;;;;;;;9.83;59.08;99331.66;107870;1271;112520;-76
2022/04/23 08:15:33;;;;;;;8.40;7.40;;;;;;;9.79;59.59;99329.09;107744;1271;137447;-75
2022/04/23 08:18:06;;;;;;;7.80;6.80;;;;;;;9.74;59.71;99328.26;107711;1272;108012;-77
2022/04/23 08:20:41;;;;;;;11.00;6.60;;;;;;;9.71;59.92;99330.33;106987;1273;138563;-76
2022/04/23 08:23:15;;;;;;;9.80;7.00;;;;;;;9.71;60.04;99327.73;106116;1272;97720;-75
2022/04/23 08:25:47;;;;;;;7.90;6.70;;;;;;;9.70;60.20;99323.42;106168;1273;111620;-76
2022/04/23 08:31:09;;;;;;;10.10;7.80;;;;;;;9.73;60.49;99327.44;106205;1274;108356;-76
2022/04/23 08:34:00;;;;;;;10.70;8.30;;;;;;;9.76;60.54;99329.25;106108;1271;137904;-76
2022/04/23 08:36:35;;;;;;;12.70;8.60;;;;;;;9.78;60.58;99326.38;107623;1271;96170;-76
2022/04/23 08:39:08;;;;;;;10.20;9.10;;;;;;;9.80;60.63;99329.03;106113;1271;137711;-75
2022/04/23 08:41:40;;;;;;;15.40;8.90;;;;;;;9.83;60.60;99326.14;106327;1271;108923;-75
2022/04/23 08:44:13;;;;;;;12.60;9.60;;;;;;;9.88;60.75;99324.17;106197;1274;108556;-75
2022/04/23 08:46:46;;;;;;;11.80;9.10;;;;;;;9.92;60.74;99324.52;106116;1271;138858;-74
2022/04/23 08:49:19;;;;;;;13.00;10.50;;;;;;;9.91;60.64;99324.90;106222;1274;97931;-75
2022/04/23 08:51:55;;;;;;;13.20;9.80;;;;;;;9.91;60.57;99325.45;106092;1271;137928;-74
2022/04/23 08:54:27;;;;;;;9.20;8.30;;;;;;;9.89;60.54;99321.21;106265;1271;107737;-75
2022/04/23 08:56:59;;;;;;;9.90;8.90;;;;;;;9.86;60.65;99320.77;106152;1271;137923;-75
2022/04/23 08:59:31;;;;;;;9.60;8.40;;;;;;;9.87;60.69;99319.02;106224;1274;97832;-75
2022/04/23 09:02:09;;;;;;;10.20;8.30;;;;;;;9.83;60.63;99314.66;106225;1273;97796;-75
2022/04/23 09:04:42;;;;;;;11.00;7.40;;;;;;;9.76;60.77;99311.51;106121;1271;137572;-75
2022/04/23 09:07:24;;;;;;;8.30;7.50;;;;;;;9.69;60.96;99312.86;107751;1273;108964;-76
2022/04/23 09:09:57;;;;;;;8.10;7.30;;;;;;;9.63;61.18;99306.85;106292;1271;139088;-75
2022/04/23 09:12:30;;;;;;;8.40;6.30;;;;;;;9.60;61.39;99307.14;106167;1274;97839;-76
2022/04/23 09:23:43;;;;;;;8.80;7.00;;;;;;;9.64;61.92;99312.03;106182;1271;108902;-75
2022/04/23 09:26:21;;;;;;;9.20;6.90;;;;;;;9.77;62.05;99311.33;106262;1272;97913;-76
2022/04/23 09:28:55;;;;;;;7.60;6.80;;;;;;;10.02;62.05;99306.86;106155;1271;137230;-75
2022/04/23 09:31:27;;;;;;;8.70;7.00;;;;;;;10.39;61.82;99305.38;106217;1271;112553;-78
2022/04/23 09:33:59;;;;;;;9.10;7.70;;;;;;;10.83;61.32;99294.76;106067;1274;138631;-77
2022/04/23 09:36:50;;;;;;;7.30;6.60;;;;;;;11.56;60.71;99296.20;106202;1271;108688;-77
2022/04/23 09:39:35;;;;;;;7.70;6.00;;;;;;;12.28;59.68;99293.77;106045;1271;137780;-76
2022/04/23 09:42:15;;;;;;;6.60;5.90;;;;;;;12.77;58.74;99289.18;106234;1272;97932;-76
2022/04/23 09:44:48;;;;;;;8.40;5.80;;;;;;;13.10;57.62;99285.35;106121;1272;138062;-77
2022/04/23 09:47:34;;;;;;;9.10;6.20;;;;;;;13.31;56.64;99283.64;106271;1271;108366;-76
2022/04/23 09:50:15;;;;;;;5.80;4.60;;;;;;;13.49;55.86;99281.17;106165;1274;108905;-76
2022/04/23 09:52:49;;;;;;;6.10;5.00;;;;;;;13.65;54.89;99280.73;107645;1274;138243;-76
2022/04/23 09:55:30;;;;;;;5.20;4.70;;;;;;;13.77;54.36;99275.13;106572;1271;97861;-74
2022/04/23 09:58:04;;;;;;;5.10;4.60;;;;;;;13.83;53.72;99273.89;106130;1273;137671;-75
2022/04/23 10:00:40;;;;;;;7.30;5.10;;;;;;;13.84;53.29;99281.19;106228;1271;109121;-75
2022/04/23 10:03:14;;;;;;;6.20;5.10;;;;;;;13.80;53.18;99281.06;106054;1271;138083;-76
2022/04/23 10:05:48;;;;;;;5.90;5.40;;;;;;;13.72;53.11;99278.05;106244;1271;98418;-76
2022/04/23 10:08:26;;;;;;;5.60;5.10;;;;;;;13.59;52.73;99275.53;106183;1274;97854;-77
2022/04/23 10:11:00;;;;;;;6.60;5.20;;;;;;;13.39;52.34;99275.13;107748;1271;137405;-77
2022/04/23 10:13:34;;;;;;;6.70;5.50;;;;;;;13.14;52.60;99280.43;106263;1271;108273;-77
2022/04/23 10:16:10;;;;;;;7.10;5.60;;;;;;;12.96;52.82;99281.26;106009;1271;138295;-77
2022/04/23 10:18:43;;;;;;;6.50;5.70;;;;;;;12.84;53.05;99282.86;106246;1271;97851;-77
2022/04/23 10:21:19;;;;;;;6.30;5.20;;;;;;;12.74;53.19;99285.00;106087;1271;137724;-77
2022/04/23 10:24:02;;;;;;;7.40;5.60;;;;;;;12.64;53.23;99279.95;106166;1271;112192;-78
2022/04/23 10:26:42;;;;;;;6.00;5.40;;;;;;;12.51;53.65;99282.95;106053;1274;137868;-77
2022/04/23 10:29:16;;;;;;;5.90;5.40;;;;;;;12.45;53.77;99287.81;106152;1273;107670;-78
2022/04/23 10:32:20;;;;;;;7.20;6.50;;;;;;;12.43;54.04;99285.48;106128;1274;98047;-77
2022/04/23 10:34:53;;;;;;;7.50;6.30;;;;;;;12.37;54.08;99288.09;106110;1272;138042;-77
2022/04/23 10:37:27;;;;;;;8.20;6.80;;;;;;;12.30;54.26;99287.05;106179;1271;112259;-77
2022/04/23 10:40:21;;;;;;;7.20;6.10;;;;;;;12.25;54.22;99283.67;106142;1271;137703;-77
2022/04/23 10:43:18;;;;;;;6.60;5.80;;;;;;;12.12;54.03;99288.39;107268;1271;106702;-75
2022/04/23 10:45:50;;;;;;;6.00;5.40;;;;;;;11.94;53.78;99287.09;106078;1274;138168;-75
2022/04/23 10:48:26;;;;;;;6.60;6.00;;;;;;;11.80;54.08;99290.08;106231;1274;97835;-77
2022/04/23 10:51:16;;;;;;;8.70;6.30;;;;;;;11.64;54.32;99287.94;106081;1273;137820;-76
2022/04/23 10:54:06;;;;;;;6.80;6.10;;;;;;;11.53;54.66;99289.92;107839;1271;107911;-78
2022/04/23 10:56:38;;;;;;;7.50;5.80;;;;;;;11.43;54.87;99288.67;107692;1269;139917;-76
2022/04/23 10:59:35;;;;;;;6.90;6.20;;;;;;;11.30;54.89;99295.46;107790;1271;96205;-77
2022/04/23 11:02:15;;;;;;;7.00;6.30;;;;;;;11.15;55.31;99296.52;106580;1273;97807;-77
2022/04/23 11:13:54;;;;;;;7.30;5.70;;;;;;;10.83;56.48;99298.98;106198;1273;97830;-76
2022/04/23 11:16:29;;;;;;;6.80;6.00;;;;;;;10.80;56.48;99300.84;106083;1273;137503;-77
2022/04/23 11:19:03;;;;;;;7.00;6.30;;;;;;;10.83;56.80;99301.55;107790;1273;112660;-78
2022/04/23 11:21:35;;;;;;;8.60;6.60;;;;;;;10.92;56.85;99296.95;107696;1271;138559;-78
2022/04/23 11:24:11;;;;;;;6.80;6.00;;;;;;;11.02;56.79;99300.15;107028;1271;107849;-76
2022/04/23 11:26:45;;;;;;;6.10;5.40;;;;;;;11.09;56.63;99302.02;106073;1271;137875;-76
2022/04/23 11:29:17;;;;;;;8.20;5.80;;;;;;;11.14;56.65;99300.23;106219;1273;97947;-76
2022/04/23 11:31:54;;;;;;;7.80;5.70;;;;;;;11.20;56.67;99300.27;106255;1272;112587;-77
2022/04/23 11:34:27;;;;;;;7.80;6.00;;;;;;;11.24;56.68;99299.36;106100;1273;137643;-74
2022/04/23 11:36:59;;;;;;;9.50;6.80;;;;;;;11.25;56.42;99299.68;106151;1273;107691;-76
2022/04/23 11:39:32;;;;;;;7.10;6.30;;;;;;;11.25;56.30;99296.88;106008;1271;138699;-75
2022/04/23 11:42:04;;;;;;;7.20;6.40;;;;;;;11.23;56.17;99292.66;106357;1269;97809;-75
2022/04/23 11:44:50;;;;;;;7.80;6.10;;;;;;;11.16;56.27;99292.30;106292;1268;112699;-76
2022/04/23 11:47:33;;;;;;;6.60;5.70;;;;;;;11.12;56.54;99285.38;106337;1271;108850;-76
2022/04/23 11:50:14;;;;;;;10.70;8.00;;;;;;;11.12;56.46;99287.94;106334;1271;107694;-74
2022/04/23 11:52:58;;;;;;;6.90;5.80;;;;;;;11.12;56.41;99284.82;106188;1270;137907;-76
2022/04/23 11:55:31;;;;;;;7.10;6.10;;;;;;;11.11;56.39;99283.50;106350;1271;97844;-74
2022/04/23 11:58:05;;;;;;;9.80;7.40;;;;;;;11.16;56.62;99281.52;106243;1271;137527;-74
2022/04/23 12:00:38;;;;;;;6.60;5.50;;;;;;;11.27;56.69;99276.42;106388;1269;107810;-75
2022/04/23 12:03:10;;;;;;;6.50;5.40;;;;;;;11.47;56.69;99273.14;107742;1270;137815;-73
2022/04/23 12:05:42;;;;;;;6.00;5.30;;;;;;;11.80;56.66;99276.81;106515;1271;97833;-76
2022/04/23 12:08:22;;;;;;;5.90;4.90;;;;;;;12.36;56.57;99275.90;106280;1270;97838;-76
2022/04/23 12:10:54;;;;;;;5.40;4.90;;;;;;;12.92;56.08;99275.04;106241;1270;137769;-77
2022/04/23 12:13:26;;;;;;;7.10;5.00;;;;;;;13.38;55.45;99272.73;106301;1271;108875;-78
2022/04/23 12:15:58;;;;;;;7.20;4.90;;;;;;;13.89;55.17;99272.45;106227;1271;137883;-77